< < Back
Terminal Aerodrome Forecast


Current Version              Previous Versions:   1  2  3  4  5  6  7  8  9  

Terminal Aerodrome Forecast

597
FTUS42 KGSP 201740
TAFAND
TAF
KAND 201740Z 2018/2118 07004KT 5SM BR OVC008
     FM202300 06004KT 6SM BR OVC015
     FM211000 05003KT 3SM BR OVC010
     FM211300 05003KT 6SM BR OVC015
     FM211700 06005KT P6SM OVC024=

Latest METAR

359
SAUS70 KWBC 210000 RRC
MTRAND
METAR KAND 202356Z AUTO 09004KT 10SM OVC014 07/04 A3022 RMK AO2 SLP233
T00720044 10072 20067 53011


USA.gov is the U.S. government's official web portal to all federal, state and local government web resources and services.